Time;durP1;ratioP1;P1;durP2;ratioP2;P2;SDS_P1;SDS_P2;PMS_P1;PMS_P2;Temp;Humidity;BMP_temperature;BMP_pressure;BME280_temperature;BME280_humidity;BME280_pressure;Samples;Min_cycle;Max_cycle;Signal;HPM_P1;HPM_P2
2022/04/09 00:01:56;;;;;;;22.42;5.90;;;;;;;;;;4942463;28;20051;-74
2022/04/09 00:04:24;;;;;;;19.08;5.60;;;;;;;;;;4943101;28;20046;-74
2022/04/09 00:06:53;;;;;;;24.83;5.63;;;;;;;;;;4921730;28;20034;-73
2022/04/09 00:09:22;;;;;;;22.38;5.50;;;;;;;;;;4944076;28;20514;-74
2022/04/09 00:11:50;;;;;;;25.30;6.68;;;;;;;;;;4926901;28;20042;-74
2022/04/09 00:14:23;;;;;;;23.80;5.95;;;;;;;;;;4942784;28;20110;-73
2022/04/09 00:16:51;;;;;;;22.85;5.38;;;;;;;;;;4937069;28;20188;-73
2022/04/09 00:19:18;;;;;;;27.83;6.18;;;;;;;;;;4941147;28;20039;-74
2022/04/09 00:21:46;;;;;;;25.13;6.10;;;;;;;;;;4941673;28;20038;-73
2022/04/09 00:24:14;;;;;;;24.02;5.45;;;;;;;;;;4944765;28;20067;-73
2022/04/09 00:26:41;;;;;;;25.33;6.13;;;;;;;;;;4943942;28;20141;-73
2022/04/09 00:29:13;;;;;;;27.40;6.53;;;;;;;;;;4925607;28;20078;-73
2022/04/09 00:31:42;;;;;;;26.73;6.38;;;;;;;;;;4938565;28;20053;-73
2022/04/09 00:34:08;;;;;;;29.77;6.03;;;;;;;;;;4939112;28;20501;-73
2022/04/09 00:36:37;;;;;;;23.65;5.63;;;;;;;;;;4947187;28;20057;-74
2022/04/09 00:39:03;;;;;;;29.80;5.97;;;;;;;;;;4971055;28;20396;-73
2022/04/09 00:41:32;;;;;;;28.27;6.25;;;;;;;;;;4988361;28;20052;-73
2022/04/09 00:44:00;;;;;;;27.55;6.03;;;;;;;;;;4997565;28;20026;-73
2022/04/09 00:46:26;;;;;;;28.85;6.53;;;;;;;;;;4999007;28;20036;-72
2022/04/09 00:48:53;;;;;;;25.55;5.85;;;;;;;;;;4998026;28;20068;-72
2022/04/09 00:51:20;;;;;;;24.80;5.63;;;;;;;;;;5000783;28;20053;-72
2022/04/09 00:53:48;;;;;;;21.13;5.88;;;;;;;;;;4996966;28;20425;-72
2022/04/09 00:56:21;;;;;;;28.05;6.22;;;;;;;;;;4999392;28;20385;-72
2022/04/09 00:58:55;;;;;;;21.83;6.22;;;;;;;;;;4941843;28;20096;-72
2022/04/09 01:01:28;;;;;;;26.80;5.85;;;;;;;;;;4988745;28;20040;-72
2022/04/09 01:03:54;;;;;;;31.80;8.63;;;;;;;;;;4988554;28;20362;-71
2022/04/09 01:06:20;;;;;;;27.23;6.13;;;;;;;;;;5011303;28;20487;-73
2022/04/09 01:08:47;;;;;;;29.27;7.75;;;;;;;;;;4994883;28;20503;-72
2022/04/09 01:11:15;;;;;;;24.35;6.47;;;;;;;;;;5009019;28;20040;-72
2022/04/09 01:13:42;;;;;;;25.77;6.22;;;;;;;;;;4996615;28;20064;-72
2022/04/09 01:16:11;;;;;;;23.38;7.00;;;;;;;;;;4990194;28;20139;-72
2022/04/09 01:18:41;;;;;;;24.58;7.00;;;;;;;;;;5006307;28;20079;-71
2022/04/09 01:21:07;;;;;;;22.92;7.10;;;;;;;;;;4986513;28;20042;-73
2022/04/09 01:23:36;;;;;;;28.23;8.07;;;;;;;;;;5008327;28;20549;-72
2022/04/09 01:26:05;;;;;;;25.17;5.57;;;;;;;;;;5004672;28;20436;-72
2022/04/09 01:28:33;;;;;;;30.83;8.38;;;;;;;;;;4993206;28;20337;-72
2022/04/09 01:31:00;;;;;;;30.30;6.93;;;;;;;;;;4991330;28;20100;-72
2022/04/09 01:33:29;;;;;;;25.83;6.47;;;;;;;;;;4985505;28;20048;-72
2022/04/09 01:35:58;;;;;;;19.98;4.90;;;;;;;;;;4952216;28;20878;-72
2022/04/09 01:38:26;;;;;;;21.92;5.97;;;;;;;;;;4944184;28;20432;-72
2022/04/09 01:40:54;;;;;;;24.77;6.03;;;;;;;;;;4939328;28;20033;-73
2022/04/09 01:43:22;;;;;;;18.80;5.15;;;;;;;;;;4942865;28;20053;-72
2022/04/09 01:45:49;;;;;;;21.80;5.60;;;;;;;;;;4917054;28;20439;-72
2022/04/09 01:48:16;;;;;;;26.48;6.00;;;;;;;;;;4939208;28;20100;-72
2022/04/09 01:50:44;;;;;;;22.27;5.20;;;;;;;;;;4939614;28;20030;-72
2022/04/09 01:53:12;;;;;;;17.98;4.57;;;;;;;;;;4933349;28;20049;-73
2022/04/09 01:55:43;;;;;;;18.23;4.93;;;;;;;;;;4939499;28;20044;-72
2022/04/09 01:58:10;;;;;;;19.45;5.07;;;;;;;;;;4933077;28;20037;-72
2022/04/09 02:00:39;;;;;;;22.75;5.55;;;;;;;;;;4941023;28;20128;-72
2022/04/09 02:03:07;;;;;;;19.27;5.20;;;;;;;;;;4940729;28;20034;-72
2022/04/09 02:05:35;;;;;;;21.55;5.88;;;;;;;;;;4942378;28;20026;-73
2022/04/09 02:08:07;;;;;;;18.65;4.97;;;;;;;;;;4940659;28;20030;-72
2022/04/09 02:10:37;;;;;;;20.27;5.10;;;;;;;;;;4942936;28;20030;-72
2022/04/09 02:13:10;;;;;;;21.40;5.57;;;;;;;;;;4962339;28;20148;-73
2022/04/09 02:15:37;;;;;;;20.95;5.00;;;;;;;;;;4988125;28;20116;-72
2022/04/09 02:18:03;;;;;;;22.25;5.28;;;;;;;;;;4986023;28;20101;-72
2022/04/09 02:20:33;;;;;;;22.75;5.90;;;;;;;;;;4987030;28;20412;-72
2022/04/09 02:23:02;;;;;;;23.38;5.43;;;;;;;;;;4985691;28;20470;-72
2022/04/09 02:25:30;;;;;;;19.40;5.50;;;;;;;;;;4965438;28;20686;-72
2022/04/09 02:27:57;;;;;;;18.08;5.15;;;;;;;;;;4963639;28;20354;-73
2022/04/09 02:30:23;;;;;;;24.52;6.13;;;;;;;;;;4965923;28;20054;-72
2022/04/09 02:32:50;;;;;;;23.92;6.47;;;;;;;;;;4959575;28;20056;-73
2022/04/09 02:35:20;;;;;;;24.08;5.90;;;;;;;;;;4965515;28;20436;-72
2022/04/09 02:37:48;;;;;;;22.35;5.38;;;;;;;;;;4960396;28;20392;-72
2022/04/09 02:40:16;;;;;;;23.73;5.57;;;;;;;;;;4968424;28;20034;-72
2022/04/09 02:42:46;;;;;;;17.65;4.95;;;;;;;;;;4983618;28;20129;-72
2022/04/09 02:45:13;;;;;;;22.13;5.47;;;;;;;;;;4951122;28;20589;-71
2022/04/09 02:47:41;;;;;;;28.83;5.93;;;;;;;;;;4984674;28;20140;-72
2022/04/09 02:50:10;;;;;;;24.35;5.40;;;;;;;;;;4964563;28;21435;-72
2022/04/09 02:52:39;;;;;;;20.98;5.10;;;;;;;;;;4981256;28;20044;-74
2022/04/09 02:55:07;;;;;;;20.17;5.10;;;;;;;;;;4961934;28;20873;-73
2022/04/09 02:57:37;;;;;;;25.08;5.43;;;;;;;;;;4985577;28;20026;-73
2022/04/09 03:00:06;;;;;;;20.83;4.80;;;;;;;;;;4979564;28;20511;-71
2022/04/09 03:02:38;;;;;;;15.85;3.75;;;;;;;;;;4983599;28;20068;-71
2022/04/09 03:05:05;;;;;;;16.13;4.22;;;;;;;;;;4982443;28;20046;-73
2022/04/09 03:07:31;;;;;;;14.68;3.58;;;;;;;;;;4971409;28;20038;-73
2022/04/09 03:09:57;;;;;;;;;;;;;;;;;;4978149;28;20049;-71
2022/04/09 03:12:23;;;;;;;20.83;4.82;;;;;;;;;;4984593;28;19917;-72
2022/04/09 03:14:51;;;;;;;13.38;3.40;;;;;;;;;;4981269;28;20949;-72
2022/04/09 03:17:17;;;;;;;17.92;3.80;;;;;;;;;;4989429;28;20080;-72
2022/04/09 03:19:44;;;;;;;15.38;3.67;;;;;;;;;;5011080;28;20033;-72
2022/04/09 03:22:11;;;;;;;18.70;4.30;;;;;;;;;;5003460;28;20044;-72
2022/04/09 03:24:38;;;;;;;16.35;4.05;;;;;;;;;;4989210;28;20040;-72
2022/04/09 03:27:04;;;;;;;14.85;3.58;;;;;;;;;;5003469;28;20993;-71
2022/04/09 03:29:31;;;;;;;19.30;4.25;;;;;;;;;;5006964;28;20137;-72
2022/04/09 03:31:57;;;;;;;18.52;4.22;;;;;;;;;;5006274;28;20538;-72
2022/04/09 03:34:26;;;;;;;18.80;4.30;;;;;;;;;;5011186;28;20140;-72
2022/04/09 03:36:53;;;;;;;12.38;3.28;;;;;;;;;;5004356;28;20156;-72
2022/04/09 03:39:19;;;;;;;5.43;1.17;;;;;;;;;;4958276;28;20033;-73
2022/04/09 03:41:48;;;;;;;6.53;1.20;;;;;;;;;;4990479;28;20042;-72
2022/04/09 03:44:15;;;;;;;4.05;0.95;;;;;;;;;;4974987;28;20030;-73
2022/04/09 03:46:42;;;;;;;4.40;0.90;;;;;;;;;;4993360;28;20139;-71
2022/04/09 03:49:10;;;;;;;5.38;0.90;;;;;;;;;;4985062;28;20045;-71
2022/04/09 03:51:38;;;;;;;12.20;1.70;;;;;;;;;;4990187;28;20038;-73
2022/04/09 03:54:06;;;;;;;10.68;1.98;;;;;;;;;;4971481;28;20126;-72
2022/04/09 03:56:34;;;;;;;12.35;2.53;;;;;;;;;;4988302;28;20072;-72
2022/04/09 03:59:03;;;;;;;12.93;2.35;;;;;;;;;;4987602;28;20038;-71
2022/04/09 04:01:31;;;;;;;11.63;2.08;;;;;;;;;;4990642;28;20516;-72
2022/04/09 04:03:58;;;;;;;11.23;2.42;;;;;;;;;;4989061;28;20041;-72
2022/04/09 04:06:29;;;;;;;12.40;2.92;;;;;;;;;;4991776;28;20476;-72
2022/04/09 04:08:56;;;;;;;14.02;2.90;;;;;;;;;;4987636;28;20526;-73
2022/04/09 04:11:24;;;;;;;12.40;3.08;;;;;;;;;;4991620;28;20056;-72
2022/04/09 04:13:52;;;;;;;11.55;1.80;;;;;;;;;;4988140;28;20472;-72
2022/04/09 04:16:21;;;;;;;6.93;1.27;;;;;;;;;;4989458;28;20468;-71
2022/04/09 04:18:48;;;;;;;9.55;1.58;;;;;;;;;;4953641;28;20522;-71
2022/04/09 04:21:15;;;;;;;12.13;2.40;;;;;;;;;;4955361;28;20105;-73
2022/04/09 04:23:44;;;;;;;12.45;2.40;;;;;;;;;;4949564;28;20273;-72
2022/04/09 04:26:10;;;;;;;11.35;2.42;;;;;;;;;;4944646;28;20046;-72
2022/04/09 04:28:36;;;;;;;11.27;2.17;;;;;;;;;;4950939;28;20034;-72
2022/04/09 04:31:04;;;;;;;10.45;2.40;;;;;;;;;;4947997;28;20042;-72
2022/04/09 04:33:32;;;;;;;9.63;1.83;;;;;;;;;;4949623;28;20117;-72
2022/04/09 04:35:59;;;;;;;8.98;1.70;;;;;;;;;;4945605;28;20165;-72
2022/04/09 04:38:27;;;;;;;6.38;1.50;;;;;;;;;;4948231;28;20587;-72
2022/04/09 04:40:55;;;;;;;4.70;0.90;;;;;;;;;;4964619;28;20406;-71
2022/04/09 04:43:23;;;;;;;4.28;0.80;;;;;;;;;;4969234;28;20034;-72
2022/04/09 04:45:50;;;;;;;7.28;1.00;;;;;;;;;;4965337;28;20065;-72
2022/04/09 04:48:21;;;;;;;6.00;0.95;;;;;;;;;;4967523;28;20038;-74
2022/04/09 04:50:48;;;;;;;6.32;1.00;;;;;;;;;;4969303;28;20515;-72
2022/04/09 04:53:14;;;;;;;7.00;0.80;;;;;;;;;;4955735;28;20483;-72
2022/04/09 04:55:40;;;;;;;4.38;0.98;;;;;;;;;;4932891;28;20138;-72
2022/04/09 04:58:06;;;;;;;5.68;1.00;;;;;;;;;;4930161;28;20050;-72
2022/04/09 05:00:33;;;;;;;;;;;;;;;;;;4934293;28;20169;-72
2022/04/09 05:02:59;;;;;;;2.33;0.65;;;;;;;;;;4930051;28;20235;-73
2022/04/09 05:05:26;;;;;;;4.30;0.95;;;;;;;;;;4936098;28;20084;-73
2022/04/09 05:07:55;;;;;;;4.47;0.93;;;;;;;;;;4927547;28;20130;-72
2022/04/09 05:10:24;;;;;;;3.28;0.70;;;;;;;;;;4944322;28;20047;-73
2022/04/09 05:12:54;;;;;;;4.75;0.90;;;;;;;;;;4933876;28;20415;-72
2022/04/09 05:15:21;;;;;;;6.35;1.10;;;;;;;;;;4941468;28;20046;-73
2022/04/09 05:17:48;;;;;;;3.95;0.80;;;;;;;;;;4947232;28;20038;-72
2022/04/09 05:20:16;;;;;;;4.63;0.90;;;;;;;;;;4920908;28;20054;-72
2022/04/09 05:22:46;;;;;;;4.80;0.88;;;;;;;;;;4935191;28;20153;-73
2022/04/09 05:25:13;;;;;;;6.38;1.05;;;;;;;;;;4944255;28;20060;-72
2022/04/09 05:27:43;;;;;;;9.23;1.05;;;;;;;;;;4968456;28;20064;-73
2022/04/09 05:30:12;;;;;;;4.47;0.90;;;;;;;;;;4976458;28;20037;-73
2022/04/09 05:32:40;;;;;;;11.32;3.10;;;;;;;;;;4986141;28;20036;-73
2022/04/09 05:35:08;;;;;;;12.25;4.10;;;;;;;;;;4984116;28;20025;-73
2022/04/09 05:37:36;;;;;;;9.68;3.55;;;;;;;;;;4991451;28;20053;-73
2022/04/09 05:40:05;;;;;;;9.85;3.13;;;;;;;;;;4986982;28;20030;-72
2022/04/09 05:42:35;;;;;;;7.30;1.90;;;;;;;;;;5008417;28;20577;-74
2022/04/09 05:45:02;;;;;;;6.05;1.52;;;;;;;;;;5004272;28;20033;-73
2022/04/09 05:47:31;;;;;;;6.53;1.30;;;;;;;;;;4992186;28;20581;-73
2022/04/09 05:50:00;;;;;;;5.30;1.45;;;;;;;;;;5000797;28;20037;-75
2022/04/09 05:52:26;;;;;;;8.43;2.05;;;;;;;;;;4992380;28;20037;-73
2022/04/09 05:54:55;;;;;;;8.00;2.22;;;;;;;;;;5005820;28;20029;-72
2022/04/09 05:57:33;;;;;;;9.93;2.20;;;;;;;;;;5008028;28;20045;-73
2022/04/09 06:00:04;;;;;;;6.50;1.48;;;;;;;;;;4990657;28;20025;-72
2022/04/09 06:02:31;;;;;;;6.70;1.23;;;;;;;;;;4988481;28;20452;-73
2022/04/09 06:05:01;;;;;;;6.13;1.45;;;;;;;;;;5004351;28;20033;-72
2022/04/09 06:07:27;;;;;;;6.38;1.48;;;;;;;;;;4970440;28;20689;-73
2022/04/09 06:09:54;;;;;;;5.85;1.50;;;;;;;;;;4947451;28;20042;-73
2022/04/09 06:12:23;;;;;;;5.57;1.50;;;;;;;;;;4956774;28;20637;-72
2022/04/09 06:14:52;;;;;;;9.50;3.03;;;;;;;;;;4962415;28;20449;-73
2022/04/09 06:17:18;;;;;;;8.07;2.45;;;;;;;;;;4966154;28;20036;-73
2022/04/09 06:19:44;;;;;;;11.57;3.67;;;;;;;;;;4969915;28;20034;-73
2022/04/09 06:22:10;;;;;;;;;;;;;;;;;;4963827;28;20040;-73
2022/04/09 06:24:38;;;;;;;8.88;2.30;;;;;;;;;;4968523;28;19914;-73
2022/04/09 06:27:05;;;;;;;5.28;1.40;;;;;;;;;;4965838;28;20400;-73
2022/04/09 06:29:33;;;;;;;5.72;1.42;;;;;;;;;;4968771;28;20291;-73
2022/04/09 06:31:59;;;;;;;4.97;1.05;;;;;;;;;;4944913;28;20559;-73
2022/04/09 06:34:26;;;;;;;4.72;1.17;;;;;;;;;;4968338;28;20034;-72
2022/04/09 06:36:52;;;;;;;5.78;1.00;;;;;;;;;;4964508;28;20054;-73
2022/04/09 06:39:22;;;;;;;6.68;1.10;;;;;;;;;;4969902;28;20108;-73
2022/04/09 06:41:51;;;;;;;7.28;1.13;;;;;;;;;;4965608;28;20933;-73
2022/04/09 06:44:19;;;;;;;7.07;1.25;;;;;;;;;;4967493;28;20042;-72
2022/04/09 06:46:46;;;;;;;6.75;1.25;;;;;;;;;;4964642;28;20917;-73
2022/04/09 06:49:16;;;;;;;3.90;0.93;;;;;;;;;;4964542;28;20120;-74
2022/04/09 06:51:43;;;;;;;4.63;1.10;;;;;;;;;;4980659;28;20083;-73
2022/04/09 06:54:09;;;;;;;5.80;1.30;;;;;;;;;;4992071;28;20037;-73
2022/04/09 06:56:37;;;;;;;4.88;1.10;;;;;;;;;;5007408;28;20029;-73
2022/04/09 06:59:08;;;;;;;4.43;0.88;;;;;;;;;;5002603;28;20060;-73
2022/04/09 07:01:36;;;;;;;6.63;1.20;;;;;;;;;;4964095;28;20678;-74
2022/04/09 07:04:03;;;;;;;5.13;0.90;;;;;;;;;;4962276;28;20110;-73
2022/04/09 07:06:32;;;;;;;4.93;1.00;;;;;;;;;;4954116;28;20520;-73
2022/04/09 07:08:59;;;;;;;4.95;1.13;;;;;;;;;;4969105;28;20264;-74
2022/04/09 07:11:25;;;;;;;4.15;0.90;;;;;;;;;;4969890;28;20505;-74
2022/04/09 07:13:51;;;;;;;;;;;;;;;;;;4964150;28;20038;-73
2022/04/09 07:16:18;;;;;;;4.53;0.87;;;;;;;;;;4967792;28;19980;-73
2022/04/09 07:18:47;;;;;;;7.20;1.00;;;;;;;;;;4968176;28;20371;-73
2022/04/09 07:21:13;;;;;;;4.13;0.80;;;;;;;;;;4952210;28;20532;-73
2022/04/09 07:23:39;;;;;;;;;;;;;;;;;;4969105;28;20042;-73
2022/04/09 07:26:12;;;;;;;4.68;1.10;;;;;;;;;;4963394;28;19924;-72
2022/04/09 07:28:40;;;;;;;3.47;0.70;;;;;;;;;;4966634;28;20038;-72
2022/04/09 07:31:07;;;;;;;6.97;1.20;;;;;;;;;;4964197;28;20141;-72
2022/04/09 07:33:35;;;;;;;7.57;0.90;;;;;;;;;;4967618;28;20033;-73
2022/04/09 07:36:03;;;;;;;5.07;1.00;;;;;;;;;;4964577;28;20093;-73
2022/04/09 07:38:30;;;;;;;5.80;1.25;;;;;;;;;;4942640;28;20425;-73
2022/04/09 07:40:57;;;;;;;4.00;0.80;;;;;;;;;;4926847;28;20092;-72
2022/04/09 07:43:25;;;;;;;3.85;0.90;;;;;;;;;;4932384;28;20595;-73
2022/04/09 07:45:53;;;;;;;3.55;1.10;;;;;;;;;;4928348;28;20683;-73
2022/04/09 07:48:20;;;;;;;6.57;1.00;;;;;;;;;;4934902;28;20033;-72
2022/04/09 07:50:48;;;;;;;7.60;1.35;;;;;;;;;;4947616;28;20667;-72
2022/04/09 07:53:15;;;;;;;6.93;1.20;;;;;;;;;;4989623;28;20022;-72
2022/04/09 07:55:42;;;;;;;8.02;1.20;;;;;;;;;;4990961;28;20665;-72
2022/04/09 07:58:14;;;;;;;5.22;0.90;;;;;;;;;;4987369;28;20033;-73
2022/04/09 08:00:44;;;;;;;4.40;0.95;;;;;;;;;;4990547;28;20025;-73
2022/04/09 08:03:13;;;;;;;5.40;0.85;;;;;;;;;;4987053;28;20145;-73
2022/04/09 08:05:39;;;;;;;5.22;0.90;;;;;;;;;;4987939;28;20045;-73
2022/04/09 08:08:17;;;;;;;7.53;1.55;;;;;;;;;;4988909;28;20334;-73
2022/04/09 08:10:46;;;;;;;5.93;1.10;;;;;;;;;;4990949;28;20173;-73
2022/04/09 08:13:13;;;;;;;6.68;1.10;;;;;;;;;;4987143;28;20718;-73
2022/04/09 08:15:40;;;;;;;6.10;1.23;;;;;;;;;;4982842;28;20065;-73
2022/04/09 08:18:06;;;;;;;;;;;;;;;;;;4985427;28;20479;-69
2022/04/09 08:20:33;;;;;;;5.90;1.38;;;;;;;;;;4984395;28;20356;-70
2022/04/09 08:23:00;;;;;;;5.78;1.38;;;;;;;;;;4966598;28;20845;-69
2022/04/09 08:25:28;;;;;;;6.60;1.30;;;;;;;;;;4989358;28;20032;-69
2022/04/09 08:27:54;;;;;;;7.25;1.20;;;;;;;;;;4983439;28;20498;-69
2022/04/09 08:30:22;;;;;;;;;;;;;;;;;;4987992;28;20030;-69
2022/04/09 08:32:51;;;;;;;5.53;1.48;;;;;;;;;;4984444;28;20293;-71
2022/04/09 08:35:18;;;;;;;5.68;1.58;;;;;;;;;;4976642;28;20064;-71
2022/04/09 08:37:55;;;;;;;8.07;1.85;;;;;;;;;;4996947;28;20557;-70
2022/04/09 08:40:22;;;;;;;7.38;1.80;;;;;;;;;;4992683;28;20453;-71
2022/04/09 08:42:49;;;;;;;6.85;2.33;;;;;;;;;;4987311;28;20034;-71
2022/04/09 08:45:17;;;;;;;8.10;2.08;;;;;;;;;;4991275;28;20045;-70
2022/04/09 08:47:44;;;;;;;8.25;2.13;;;;;;;;;;4997114;28;20366;-70
2022/04/09 08:50:12;;;;;;;7.68;1.98;;;;;;;;;;4992677;28;20033;-70
2022/04/09 08:52:42;;;;;;;5.13;1.13;;;;;;;;;;4984504;28;20454;-72
2022/04/09 08:55:13;;;;;;;8.07;1.73;;;;;;;;;;4983363;28;20964;-71
2022/04/09 08:57:40;;;;;;;4.00;1.08;;;;;;;;;;4984297;28;20030;-72
2022/04/09 09:00:12;;;;;;;4.07;1.10;;;;;;;;;;4979729;28;24657;-72
2022/04/09 09:03:01;;;;;;;5.28;1.30;;;;;;;;;;4959469;28;20061;-71
2022/04/09 09:05:29;;;;;;;5.97;1.35;;;;;;;;;;4983099;28;20030;-71
2022/04/09 09:07:57;;;;;;;9.57;1.52;;;;;;;;;;4961854;28;20038;-71
2022/04/09 09:10:25;;;;;;;7.45;1.33;;;;;;;;;;4983028;28;20068;-71
2022/04/09 09:13:06;;;;;;;6.68;1.60;;;;;;;;;;4979292;28;20434;-71
2022/04/09 09:15:55;;;;;;;6.53;1.20;;;;;;;;;;4980839;28;20207;-72
2022/04/09 09:18:32;;;;;;;4.95;1.10;;;;;;;;;;4972113;28;20042;-71
2022/04/09 09:20:59;;;;;;;4.57;1.00;;;;;;;;;;4986009;28;20563;-71
2022/04/09 09:23:30;;;;;;;5.50;1.30;;;;;;;;;;4984061;28;20037;-72
2022/04/09 09:25:58;;;;;;;4.80;1.17;;;;;;;;;;4986543;28;20887;-71
2022/04/09 09:28:35;;;;;;;4.88;0.98;;;;;;;;;;4970723;28;20590;-71
2022/04/09 09:31:05;;;;;;;6.97;1.52;;;;;;;;;;4986438;28;20037;-72
2022/04/09 09:33:35;;;;;;;5.75;1.42;;;;;;;;;;4966861;28;20113;-72
2022/04/09 09:36:03;;;;;;;5.47;1.30;;;;;;;;;;4978207;28;20044;-72
2022/04/09 09:38:34;;;;;;;7.20;1.42;;;;;;;;;;4982421;28;20073;-71
2022/04/09 09:41:03;;;;;;;4.68;1.35;;;;;;;;;;4943990;28;20041;-72
2022/04/09 09:43:31;;;;;;;6.40;1.58;;;;;;;;;;4981191;28;20437;-73
2022/04/09 09:46:02;;;;;;;5.47;1.40;;;;;;;;;;4974115;28;20645;-70
2022/04/09 09:48:34;;;;;;;6.03;1.30;;;;;;;;;;4979049;28;20050;-72
2022/04/09 09:51:02;;;;;;;8.43;2.20;;;;;;;;;;4975769;28;20128;-73
2022/04/09 09:53:34;;;;;;;7.15;2.05;;;;;;;;;;4979458;28;20033;-71
2022/04/09 09:56:04;;;;;;;8.75;2.40;;;;;;;;;;4978414;28;20038;-73
2022/04/09 09:58:40;;;;;;;10.35;2.45;;;;;;;;;;4981448;28;20045;-72
2022/04/09 10:01:09;;;;;;;7.18;1.50;;;;;;;;;;4957255;28;20047;-72
2022/04/09 10:03:36;;;;;;;5.30;1.23;;;;;;;;;;4974597;28;20484;-72
2022/04/09 10:06:04;;;;;;;6.25;1.30;;;;;;;;;;4957950;28;20718;-74
2022/04/09 10:08:34;;;;;;;5.55;1.20;;;;;;;;;;4983782;28;20053;-72
2022/04/09 10:11:02;;;;;;;7.75;1.60;;;;;;;;;;4956068;28;20044;-72
2022/04/09 10:13:29;;;;;;;7.40;1.85;;;;;;;;;;4957858;28;20037;-72
2022/04/09 10:15:57;;;;;;;7.18;1.60;;;;;;;;;;4977681;28;20037;-72
2022/04/09 10:18:25;;;;;;;6.38;1.60;;;;;;;;;;4977510;28;20464;-73
2022/04/09 10:20:56;;;;;;;8.23;1.17;;;;;;;;;;4960656;28;20103;-73
2022/04/09 10:23:25;;;;;;;6.70;1.42;;;;;;;;;;4984670;28;20480;-72
2022/04/09 10:25:57;;;;;;;6.93;1.80;;;;;;;;;;4960168;28;20105;-71
2022/04/09 10:28:36;;;;;;;10.95;2.10;;;;;;;;;;4982103;28;20029;-72
2022/04/09 10:31:03;;;;;;;8.27;2.30;;;;;;;;;;4981123;28;20137;-72
2022/04/09 10:33:36;;;;;;;13.70;2.47;;;;;;;;;;4986024;28;20517;-73
2022/04/09 10:36:04;;;;;;;10.77;1.90;;;;;;;;;;4976657;28;20117;-72
2022/04/09 10:38:31;;;;;;;9.98;1.85;;;;;;;;;;4968910;28;20119;-70
2022/04/09 10:41:10;;;;;;;9.30;2.20;;;;;;;;;;4978165;28;20114;-70
2022/04/09 10:43:42;;;;;;;7.85;1.73;;;;;;;;;;4983730;28;20342;-70
2022/04/09 10:46:20;;;;;;;8.02;2.22;;;;;;;;;;4965594;28;20037;-70
2022/04/09 10:48:48;;;;;;;8.15;2.00;;;;;;;;;;4982727;28;20480;-71
2022/04/09 10:51:21;;;;;;;8.77;2.60;;;;;;;;;;4975461;28;20139;-70
2022/04/09 10:53:49;;;;;;;8.35;1.80;;;;;;;;;;4981620;28;20517;-70
2022/04/09 10:56:27;;;;;;;10.13;2.85;;;;;;;;;;4984043;28;20494;-71
2022/04/09 10:59:10;;;;;;;8.40;2.40;;;;;;;;;;4978285;28;20057;-71
2022/04/09 11:01:53;;;;;;;10.60;2.00;;;;;;;;;;4991096;28;20029;-71
2022/04/09 11:04:34;;;;;;;6.57;1.85;;;;;;;;;;4986794;28;20033;-71
2022/04/09 11:07:23;;;;;;;8.77;1.88;;;;;;;;;;4978067;28;20041;-71
2022/04/09 11:10:04;;;;;;;6.13;1.40;;;;;;;;;;4975113;28;20026;-71
2022/04/09 11:12:37;;;;;;;5.03;1.10;;;;;;;;;;4987970;28;20034;-73
2022/04/09 11:15:05;;;;;;;7.88;1.75;;;;;;;;;;4979185;28;20029;-71
2022/04/09 11:17:36;;;;;;;8.35;2.10;;;;;;;;;;4972837;28;20054;-70
2022/04/09 11:20:28;;;;;;;8.45;1.92;;;;;;;;;;4975818;28;20048;-72
2022/04/09 11:22:56;;;;;;;7.47;1.98;;;;;;;;;;4931254;28;20058;-71
2022/04/09 11:25:27;;;;;;;8.05;2.03;;;;;;;;;;4947204;28;20066;-70
2022/04/09 11:28:06;;;;;;;7.93;1.90;;;;;;;;;;4924565;28;20207;-71
2022/04/09 11:30:35;;;;;;;7.22;1.70;;;;;;;;;;4938610;28;20173;-70
2022/04/09 11:33:02;;;;;;;9.02;2.00;;;;;;;;;;4935546;28;20125;-73
2022/04/09 11:35:35;;;;;;;6.38;1.67;;;;;;;;;;4946041;28;20995;-70
2022/04/09 11:38:09;;;;;;;8.43;1.58;;;;;;;;;;4944523;28;20466;-70
2022/04/09 11:40:46;;;;;;;7.57;1.60;;;;;;;;;;4947260;28;20057;-70
2022/04/09 11:43:18;;;;;;;8.65;1.80;;;;;;;;;;4945974;28;20050;-70
2022/04/09 11:45:49;;;;;;;7.72;1.90;;;;;;;;;;4941825;28;20047;-70
2022/04/09 11:48:19;;;;;;;8.73;3.05;;;;;;;;;;4940594;28;20081;-71
2022/04/09 11:50:48;;;;;;;10.48;3.40;;;;;;;;;;4943100;28;20122;-72
2022/04/09 11:53:24;;;;;;;9.32;3.72;;;;;;;;;;4944806;28;20035;-71
2022/04/09 11:55:58;;;;;;;9.27;2.92;;;;;;;;;;4946314;28;20050;-71
2022/04/09 11:58:35;;;;;;;8.75;1.90;;;;;;;;;;4953934;28;20043;-71
2022/04/09 12:01:03;;;;;;;;;;;;;;;;;;4983529;28;20046;-71
2022/04/09 12:03:30;;;;;;;7.40;2.45;;;;;;;;;;4989144;28;19913;-71
2022/04/09 12:06:01;;;;;;;8.02;2.08;;;;;;;;;;4969185;28;20038;-72
2022/04/09 12:08:33;;;;;;;8.18;2.00;;;;;;;;;;4988809;28;20054;-73
2022/04/09 12:11:01;;;;;;;7.00;1.85;;;;;;;;;;4967536;28;20045;-72
2022/04/09 12:13:34;;;;;;;8.05;2.40;;;;;;;;;;4983150;28;20065;-72
2022/04/09 12:16:24;;;;;;;8.90;2.50;;;;;;;;;;4980603;28;20048;-72
2022/04/09 12:18:51;;;;;;;8.90;2.05;;;;;;;;;;4982634;28;20057;-70
2022/04/09 12:21:21;;;;;;;8.00;1.38;;;;;;;;;;4991389;28;20036;-71
2022/04/09 12:24:19;;;;;;;5.70;1.48;;;;;;;;;;4983341;28;20045;-70
2022/04/09 12:26:47;;;;;;;;;;;;;;;;;;4976633;28;20048;-71
2022/04/09 12:29:13;;;;;;;;;;;;;;;;;;4979200;28;19992;-71
2022/04/09 12:31:44;;;;;;;8.40;1.75;;;;;;;;;;4981087;28;20059;-71
2022/04/09 12:34:12;;;;;;;7.00;1.48;;;;;;;;;;4978285;28;20417;-71
2022/04/09 12:36:58;;;;;;;7.90;2.17;;;;;;;;;;4983568;28;20490;-71
2022/04/09 12:39:25;;;;;;;6.32;1.83;;;;;;;;;;4973972;28;21275;-71
2022/04/09 12:41:52;;;;;;;7.32;2.00;;;;;;;;;;4971920;28;20038;-71
2022/04/09 12:44:30;;;;;;;6.82;1.73;;;;;;;;;;4985724;28;20355;-70
2022/04/09 12:46:58;;;;;;;7.28;1.70;;;;;;;;;;4981543;28;20144;-70
2022/04/09 12:49:35;;;;;;;8.15;1.40;;;;;;;;;;4987657;28;20034;-70
2022/04/09 12:52:02;;;;;;;7.80;1.70;;;;;;;;;;4979628;28;20373;-70
2022/04/09 12:54:29;;;;;;;8.30;2.35;;;;;;;;;;4972028;28;20037;-70
2022/04/09 12:56:57;;;;;;;6.50;1.65;;;;;;;;;;4984952;28;20033;-70
2022/04/09 12:59:24;;;;;;;7.28;2.28;;;;;;;;;;4955929;28;20151;-70
2022/04/09 13:01:50;;;;;;;6.75;1.70;;;;;;;;;;4955059;28;20042;-72
2022/04/09 13:04:19;;;;;;;8.85;2.58;;;;;;;;;;4966903;28;20129;-70
2022/04/09 13:06:45;;;;;;;6.05;1.60;;;;;;;;;;4970665;28;20045;-70
2022/04/09 13:09:11;;;;;;;9.23;1.90;;;;;;;;;;4964591;28;20424;-70
2022/04/09 13:11:40;;;;;;;7.47;1.70;;;;;;;;;;4964834;28;20260;-70
2022/04/09 13:14:09;;;;;;;7.07;1.73;;;;;;;;;;4966416;28;20456;-70
2022/04/09 13:16:35;;;;;;;8.10;2.13;;;;;;;;;;4970030;28;20572;-72
2022/04/09 13:19:02;;;;;;;6.53;1.48;;;;;;;;;;4956678;28;20390;-72
2022/04/09 13:21:31;;;;;;;6.15;1.77;;;;;;;;;;4955230;28;20046;-72
2022/04/09 13:23:58;;;;;;;8.68;1.30;;;;;;;;;;4944836;28;20061;-70
2022/04/09 13:26:24;;;;;;;8.35;2.25;;;;;;;;;;4949651;28;20034;-72
2022/04/09 13:28:52;;;;;;;8.57;1.55;;;;;;;;;;4947332;28;20211;-72
2022/04/09 13:31:20;;;;;;;5.88;1.60;;;;;;;;;;4945050;28;20048;-71
2022/04/09 13:33:47;;;;;;;13.48;3.10;;;;;;;;;;4949038;28;20511;-71
2022/04/09 13:36:15;;;;;;;16.60;4.07;;;;;;;;;;4945041;28;20042;-71
2022/04/09 13:38:42;;;;;;;15.60;3.75;;;;;;;;;;4952191;28;20142;-71
2022/04/09 13:41:10;;;;;;;15.55;3.95;;;;;;;;;;4961147;28;20959;-72
2022/04/09 13:43:39;;;;;;;14.75;3.75;;;;;;;;;;4989282;28;20041;-71
2022/04/09 13:46:06;;;;;;;12.52;3.55;;;;;;;;;;4998856;28;20045;-71
2022/04/09 13:48:33;;;;;;;16.45;3.75;;;;;;;;;;4997018;28;20323;-71
2022/04/09 13:51:01;;;;;;;13.43;3.63;;;;;;;;;;4979120;28;20042;-71
2022/04/09 13:53:29;;;;;;;13.95;3.42;;;;;;;;;;4996748;28;20601;-70
2022/04/09 13:55:56;;;;;;;13.43;3.15;;;;;;;;;;4996658;28;20463;-71
2022/04/09 13:58:24;;;;;;;13.32;3.47;;;;;;;;;;4988258;28;20482;-71
2022/04/09 14:00:50;;;;;;;17.80;3.78;;;;;;;;;;4997529;28;20041;-71
2022/04/09 14:03:17;;;;;;;16.30;3.90;;;;;;;;;;4981891;28;20180;-70
2022/04/09 14:05:44;;;;;;;17.50;3.90;;;;;;;;;;4996527;28;20030;-71
2022/04/09 14:08:11;;;;;;;16.48;4.35;;;;;;;;;;4995528;28;21045;-70
2022/04/09 14:10:40;;;;;;;16.35;4.13;;;;;;;;;;4999359;28;20577;-71
2022/04/09 14:13:06;;;;;;;15.45;3.70;;;;;;;;;;4991298;28;20035;-73
2022/04/09 14:15:36;;;;;;;14.15;4.00;;;;;;;;;;5002826;28;20154;-71
2022/04/09 14:18:03;;;;;;;14.52;4.25;;;;;;;;;;4996400;28;20754;-73
2022/04/09 14:20:30;;;;;;;18.50;4.65;;;;;;;;;;4999624;28;20128;-71
2022/04/09 14:22:56;;;;;;;14.75;3.88;;;;;;;;;;4979301;28;20084;-71
2022/04/09 14:25:23;;;;;;;12.32;3.30;;;;;;;;;;4982140;28;20040;-71
2022/04/09 14:27:53;;;;;;;14.45;3.35;;;;;;;;;;4995855;28;20116;-72
2022/04/09 14:30:19;;;;;;;14.82;4.05;;;;;;;;;;4981397;28;20034;-71
2022/04/09 14:32:46;;;;;;;15.23;4.50;;;;;;;;;;4989684;28;20466;-65
2022/04/09 14:35:15;;;;;;;14.27;3.70;;;;;;;;;;4999077;28;20037;-70
2022/04/09 14:37:42;;;;;;;14.60;4.57;;;;;;;;;;5001713;28;20483;-70
2022/04/09 14:40:10;;;;;;;12.57;4.00;;;;;;;;;;4984035;28;20066;-69
2022/04/09 14:42:38;;;;;;;16.40;3.58;;;;;;;;;;4978293;28;20028;-69
2022/04/09 14:45:10;;;;;;;11.25;3.35;;;;;;;;;;4942422;28;20053;-70
2022/04/09 14:47:36;;;;;;;13.20;2.88;;;;;;;;;;4973426;28;20277;-69
2022/04/09 14:50:03;;;;;;;11.23;2.80;;;;;;;;;;4973981;28;20033;-70
2022/04/09 14:52:35;;;;;;;12.02;2.70;;;;;;;;;;4976790;28;20389;-69